sensor_id;sensor_type;location;lat;lon;timestamp;pressure;altitude;pressure_sealevel;temperature;humidity
7474;BME280;3778;42.572;23.426;2022-09-09T00:02:00;72244.50;;;-146.70;71.61
7474;BME280;3778;42.572;23.426;2022-09-09T00:04:31;72242.44;;;-146.70;71.72
7474;BME280;3778;42.572;23.426;2022-09-09T00:07:03;72234.16;;;-146.70;71.66
7474;BME280;3778;42.572;23.426;2022-09-09T00:09:39;72232.06;;;-146.70;71.73
7474;BME280;3778;42.572;23.426;2022-09-09T00:12:11;72230.00;;;-146.70;71.85
7474;BME280;3778;42.572;23.426;2022-09-09T00:14:45;72236.22;;;-146.70;71.91
7474;BME280;3778;42.572;23.426;2022-09-09T00:17:31;72242.44;;;-146.70;72.09
7474;BME280;3778;42.572;23.426;2022-09-09T00:20:02;72246.59;;;-146.70;72.39
7474;BME280;3778;42.572;23.426;2022-09-09T00:22:32;72246.59;;;-146.70;72.30
7474;BME280;3778;42.572;23.426;2022-09-09T00:25:10;72242.44;;;-146.70;71.84
7474;BME280;3778;42.572;23.426;2022-09-09T00:27:41;72246.59;;;-146.70;71.86
7474;BME280;3778;42.572;23.426;2022-09-09T00:30:16;72248.66;;;-146.70;72.01
7474;BME280;3778;42.572;23.426;2022-09-09T00:32:48;72244.50;;;-146.70;72.18
7474;BME280;3778;42.572;23.426;2022-09-09T00:35:18;72246.59;;;-146.70;72.11
7474;BME280;3778;42.572;23.426;2022-09-09T00:37:50;72256.94;;;-146.70;72.54
7474;BME280;3778;42.572;23.426;2022-09-09T00:40:24;72259.03;;;-146.70;73.21
7474;BME280;3778;42.572;23.426;2022-09-09T00:43:03;72265.22;;;-146.70;73.61
7474;BME280;3778;42.572;23.426;2022-09-09T00:45:50;72269.38;;;-146.70;74.12
7474;BME280;3778;42.572;23.426;2022-09-09T00:48:21;72263.16;;;-146.70;74.14
7474;BME280;3778;42.572;23.426;2022-09-09T00:50:53;72259.03;;;-146.70;74.18
7474;BME280;3778;42.572;23.426;2022-09-09T00:53:32;72252.81;;;-146.70;74.13
7474;BME280;3778;42.572;23.426;2022-09-09T00:56:09;72259.03;;;-146.70;74.21
7474;BME280;3778;42.572;23.426;2022-09-09T00:58:38;72267.31;;;-146.70;74.38
7474;BME280;3778;42.572;23.426;2022-09-09T01:01:09;72267.31;;;-146.70;74.33
7474;BME280;3778;42.572;23.426;2022-09-09T01:03:41;72261.09;;;-146.70;74.24
7474;BME280;3778;42.572;23.426;2022-09-09T01:06:16;72263.16;;;-146.70;74.46
7474;BME280;3778;42.572;23.426;2022-09-09T01:11:42;72275.59;;;-146.70;74.76
7474;BME280;3778;42.572;23.426;2022-09-09T01:14:16;72273.53;;;-146.70;74.72
7474;BME280;3778;42.572;23.426;2022-09-09T01:16:47;72275.59;;;-146.70;74.69
7474;BME280;3778;42.572;23.426;2022-09-09T01:19:19;72271.44;;;-146.70;74.43
7474;BME280;3778;42.572;23.426;2022-09-09T01:21:56;72267.31;;;-146.70;74.18
7474;BME280;3778;42.572;23.426;2022-09-09T01:24:35;72256.94;;;-146.70;73.92
7474;BME280;3778;42.572;23.426;2022-09-09T01:27:07;72263.16;;;-146.70;73.92
7474;BME280;3778;42.572;23.426;2022-09-09T01:29:35;72261.09;;;-146.70;73.90
7474;BME280;3778;42.572;23.426;2022-09-09T01:32:39;72269.38;;;-146.70;74.38
7474;BME280;3778;42.572;23.426;2022-09-09T01:35:08;72271.44;;;-146.70;74.65
7474;BME280;3778;42.572;23.426;2022-09-09T01:37:37;72279.75;;;-146.70;75.02
7474;BME280;3778;42.572;23.426;2022-09-09T01:40:05;72283.88;;;-146.70;75.12
7474;BME280;3778;42.572;23.426;2022-09-09T01:42:33;72294.25;;;-146.70;75.52
7474;BME280;3778;42.572;23.426;2022-09-09T01:45:00;72300.47;;;-146.70;75.73
7474;BME280;3778;42.572;23.426;2022-09-09T01:47:27;72296.31;;;-146.70;75.40
7474;BME280;3778;42.572;23.426;2022-09-09T01:49:54;72285.97;;;-146.70;75.22
7474;BME280;3778;42.572;23.426;2022-09-09T01:52:21;72277.66;;;-146.70;74.72
7474;BME280;3778;42.572;23.426;2022-09-09T01:54:48;72283.88;;;-146.70;74.42
7474;BME280;3778;42.572;23.426;2022-09-09T01:57:18;72302.53;;;-146.70;74.84
7474;BME280;3778;42.572;23.426;2022-09-09T01:59:56;72304.59;;;-146.70;75.01
7474;BME280;3778;42.572;23.426;2022-09-09T02:02:30;72306.69;;;-146.70;74.99
7474;BME280;3778;42.572;23.426;2022-09-09T02:05:04;72317.03;;;-146.70;75.50
7474;BME280;3778;42.572;23.426;2022-09-09T02:07:39;72317.03;;;-146.70;75.73
7474;BME280;3778;42.572;23.426;2022-09-09T02:10:11;72323.25;;;-146.70;75.79
7474;BME280;3778;42.572;23.426;2022-09-09T02:12:42;72329.47;;;-146.70;76.17
7474;BME280;3778;42.572;23.426;2022-09-09T02:15:16;72333.63;;;-146.70;76.28
7474;BME280;3778;42.572;23.426;2022-09-09T02:17:46;72329.47;;;-146.70;76.27
7474;BME280;3778;42.572;23.426;2022-09-09T02:20:14;72321.19;;;-146.70;75.86
7474;BME280;3778;42.572;23.426;2022-09-09T02:22:43;72314.97;;;-146.70;75.53
7474;BME280;3778;42.572;23.426;2022-09-09T02:25:15;72310.81;;;-146.70;75.30
7474;BME280;3778;42.572;23.426;2022-09-09T02:27:45;72306.69;;;-146.70;75.12
7474;BME280;3778;42.572;23.426;2022-09-09T02:30:15;72306.69;;;-146.70;75.15
7474;BME280;3778;42.572;23.426;2022-09-09T02:32:43;72306.69;;;-146.70;75.27
7474;BME280;3778;42.572;23.426;2022-09-09T02:35:15;72317.03;;;-146.70;75.48
7474;BME280;3778;42.572;23.426;2022-09-09T02:37:44;72323.25;;;-146.70;75.75
7474;BME280;3778;42.572;23.426;2022-09-09T02:40:13;72319.13;;;-146.70;75.73
7474;BME280;3778;42.572;23.426;2022-09-09T02:42:42;72317.03;;;-146.70;75.55
7474;BME280;3778;42.572;23.426;2022-09-09T02:45:11;72314.97;;;-146.70;75.28
7474;BME280;3778;42.572;23.426;2022-09-09T02:47:46;72317.03;;;-146.70;75.20
7474;BME280;3778;42.572;23.426;2022-09-09T02:50:17;72321.19;;;-146.70;75.02
7474;BME280;3778;42.572;23.426;2022-09-09T02:52:55;72310.81;;;-146.70;74.64
7474;BME280;3778;42.572;23.426;2022-09-09T02:55:35;72310.81;;;-146.70;74.65
7474;BME280;3778;42.572;23.426;2022-09-09T02:58:05;72319.13;;;-146.70;74.38
7474;BME280;3778;42.572;23.426;2022-09-09T03:00:33;72321.19;;;-146.70;74.53
7474;BME280;3778;42.572;23.426;2022-09-09T03:03:03;72321.19;;;-146.70;74.56
7474;BME280;3778;42.572;23.426;2022-09-09T03:05:30;72327.41;;;-146.70;74.72
7474;BME280;3778;42.572;23.426;2022-09-09T03:07:57;72323.25;;;-146.70;74.71
7474;BME280;3778;42.572;23.426;2022-09-09T03:10:24;72323.25;;;-146.70;74.73
7474;BME280;3778;42.572;23.426;2022-09-09T03:12:51;72323.25;;;-146.70;74.63
7474;BME280;3778;42.572;23.426;2022-09-09T03:15:18;72319.13;;;-146.70;74.66
7474;BME280;3778;42.572;23.426;2022-09-09T03:17:44;72329.47;;;-146.70;75.07
7474;BME280;3778;42.572;23.426;2022-09-09T03:20:13;72329.47;;;-146.70;75.05
7474;BME280;3778;42.572;23.426;2022-09-09T03:22:40;72325.34;;;-146.70;74.90
7474;BME280;3778;42.572;23.426;2022-09-09T03:25:07;72325.34;;;-146.70;74.81
7474;BME280;3778;42.572;23.426;2022-09-09T03:27:34;72325.34;;;-146.70;74.44
7474;BME280;3778;42.572;23.426;2022-09-09T03:30:00;72325.34;;;-146.70;74.59
7474;BME280;3778;42.572;23.426;2022-09-09T03:32:29;72323.25;;;-146.70;74.68
7474;BME280;3778;42.572;23.426;2022-09-09T03:34:56;72323.25;;;-146.70;74.58
7474;BME280;3778;42.572;23.426;2022-09-09T03:37:25;72323.25;;;-146.70;74.60
7474;BME280;3778;42.572;23.426;2022-09-09T03:39:52;72339.84;;;-146.70;75.04
7474;BME280;3778;42.572;23.426;2022-09-09T03:42:20;72362.63;;;-146.70;75.66
7474;BME280;3778;42.572;23.426;2022-09-09T03:44:47;72364.72;;;-146.70;75.92
7474;BME280;3778;42.572;23.426;2022-09-09T03:47:16;72366.78;;;-146.70;76.46
7474;BME280;3778;42.572;23.426;2022-09-09T03:49:44;72368.84;;;-146.70;76.54
7474;BME280;3778;42.572;23.426;2022-09-09T03:52:11;72358.50;;;-146.70;76.55
7474;BME280;3778;42.572;23.426;2022-09-09T03:54:39;72346.06;;;-146.70;76.38
7474;BME280;3778;42.572;23.426;2022-09-09T03:57:08;72350.19;;;-146.70;76.01
7474;BME280;3778;42.572;23.426;2022-09-09T03:59:35;72346.06;;;-146.70;76.28
7474;BME280;3778;42.572;23.426;2022-09-09T04:02:02;72327.41;;;-146.70;76.11
7474;BME280;3778;42.572;23.426;2022-09-09T04:04:29;72337.78;;;-146.70;76.09
7474;BME280;3778;42.572;23.426;2022-09-09T04:06:55;72346.06;;;-146.70;76.34
7474;BME280;3778;42.572;23.426;2022-09-09T04:09:22;72358.50;;;-146.70;76.67
7474;BME280;3778;42.572;23.426;2022-09-09T04:11:51;72366.78;;;-146.70;77.04
7474;BME280;3778;42.572;23.426;2022-09-09T04:14:18;72362.63;;;-146.70;77.15
7474;BME280;3778;42.572;23.426;2022-09-09T04:16:45;72362.63;;;-146.70;77.08
7474;BME280;3778;42.572;23.426;2022-09-09T04:19:13;72354.34;;;-146.70;76.74
7474;BME280;3778;42.572;23.426;2022-09-09T04:21:40;72350.19;;;-146.70;76.60
7474;BME280;3778;42.572;23.426;2022-09-09T04:24:08;72354.34;;;-146.70;76.65
7474;BME280;3778;42.572;23.426;2022-09-09T04:26:36;72354.34;;;-146.70;76.83
7474;BME280;3778;42.572;23.426;2022-09-09T04:29:04;72350.19;;;-146.70;76.67
7474;BME280;3778;42.572;23.426;2022-09-09T04:31:32;72343.97;;;-146.70;76.57
7474;BME280;3778;42.572;23.426;2022-09-09T04:33:59;72343.97;;;-146.70;76.32
7474;BME280;3778;42.572;23.426;2022-09-09T04:36:30;72346.06;;;-146.70;76.32
7474;BME280;3778;42.572;23.426;2022-09-09T04:38:57;72348.13;;;-146.70;76.24
7474;BME280;3778;42.572;23.426;2022-09-09T04:41:24;72337.78;;;-146.70;75.91
7474;BME280;3778;42.572;23.426;2022-09-09T04:43:50;72346.06;;;-146.70;75.53
7474;BME280;3778;42.572;23.426;2022-09-09T04:46:20;72341.91;;;-146.70;75.38
7474;BME280;3778;42.572;23.426;2022-09-09T04:48:48;72341.91;;;-146.70;75.02
7474;BME280;3778;42.572;23.426;2022-09-09T04:51:15;72325.34;;;-146.70;74.13
7474;BME280;3778;42.572;23.426;2022-09-09T04:53:42;72327.41;;;-146.70;74.14
7474;BME280;3778;42.572;23.426;2022-09-09T04:56:10;72329.47;;;-146.70;74.63
7474;BME280;3778;42.572;23.426;2022-09-09T04:58:39;72319.13;;;-146.70;74.43
7474;BME280;3778;42.572;23.426;2022-09-09T05:01:09;72312.91;;;-146.70;74.27
7474;BME280;3778;42.572;23.426;2022-09-09T05:03:37;72296.31;;;-146.70;73.92
7474;BME280;3778;42.572;23.426;2022-09-09T05:06:05;72283.88;;;-146.70;73.69
7474;BME280;3778;42.572;23.426;2022-09-09T05:08:34;72281.81;;;-146.70;73.50
7474;BME280;3778;42.572;23.426;2022-09-09T05:11:01;72273.53;;;-146.70;73.45
7474;BME280;3778;42.572;23.426;2022-09-09T05:13:28;72256.94;;;-146.70;73.49
7474;BME280;3778;42.572;23.426;2022-09-09T05:15:56;72246.59;;;-146.70;72.85
7474;BME280;3778;42.572;23.426;2022-09-09T05:18:23;72238.28;;;-146.70;72.64
7474;BME280;3778;42.572;23.426;2022-09-09T05:20:51;72234.16;;;-146.70;72.07
7474;BME280;3778;42.572;23.426;2022-09-09T05:23:18;72215.50;;;-146.70;71.56
7474;BME280;3778;42.572;23.426;2022-09-09T05:25:54;72215.50;;;-146.70;71.75
7474;BME280;3778;42.572;23.426;2022-09-09T05:28:22;72196.84;;;-146.70;70.71
7474;BME280;3778;42.572;23.426;2022-09-09T05:30:56;72176.13;;;-146.70;70.64
7474;BME280;3778;42.572;23.426;2022-09-09T05:33:24;72171.97;;;-146.70;70.47
7474;BME280;3778;42.572;23.426;2022-09-09T05:36:01;72159.53;;;-146.70;70.15
7474;BME280;3778;42.572;23.426;2022-09-09T05:38:29;72157.47;;;-146.70;70.27
7474;BME280;3778;42.572;23.426;2022-09-09T05:40:56;72134.69;;;-146.70;70.26
7474;BME280;3778;42.572;23.426;2022-09-09T05:43:24;72140.88;;;-146.70;70.26
7474;BME280;3778;42.572;23.426;2022-09-09T05:45:59;72136.75;;;-146.70;69.90
7474;BME280;3778;42.572;23.426;2022-09-09T05:48:28;72126.38;;;-146.70;69.57
7474;BME280;3778;42.572;23.426;2022-09-09T05:50:56;72109.81;;;-146.70;69.18
7474;BME280;3778;42.572;23.426;2022-09-09T05:53:24;72107.75;;;-146.70;68.72
7474;BME280;3778;42.572;23.426;2022-09-09T05:55:58;72103.59;;;-146.70;68.21
7474;BME280;3778;42.572;23.426;2022-09-09T05:58:25;72089.09;;;-146.70;67.51
7474;BME280;3778;42.572;23.426;2022-09-09T06:00:52;72072.50;;;-146.70;67.36
7474;BME280;3778;42.572;23.426;2022-09-09T06:03:20;72049.72;;;-146.70;66.95
7474;BME280;3778;42.572;23.426;2022-09-09T06:05:57;72055.94;;;-146.70;66.45
7474;BME280;3778;42.572;23.426;2022-09-09T06:08:25;72039.34;;;-146.70;66.98
7474;BME280;3778;42.572;23.426;2022-09-09T06:10:52;72033.13;;;-146.70;66.07
7474;BME280;3778;42.572;23.426;2022-09-09T06:13:19;72031.06;;;-146.70;65.58
7474;BME280;3778;42.572;23.426;2022-09-09T06:15:49;72018.63;;;-146.70;65.38
7474;BME280;3778;42.572;23.426;2022-09-09T06:18:17;72016.56;;;-146.70;65.70
7474;BME280;3778;42.572;23.426;2022-09-09T06:20:53;72010.34;;;-146.70;65.28
7474;BME280;3778;42.572;23.426;2022-09-09T06:23:20;71997.91;;;-146.70;65.45
7474;BME280;3778;42.572;23.426;2022-09-09T06:25:48;71981.31;;;-146.70;65.71
7474;BME280;3778;42.572;23.426;2022-09-09T06:28:16;71973.03;;;-146.70;65.25
7474;BME280;3778;42.572;23.426;2022-09-09T06:30:42;71973.03;;;-146.70;65.05
7474;BME280;3778;42.572;23.426;2022-09-09T06:33:10;71964.75;;;-146.70;64.25
7474;BME280;3778;42.572;23.426;2022-09-09T06:35:37;71954.38;;;-146.70;65.12
7474;BME280;3778;42.572;23.426;2022-09-09T06:38:04;71944.03;;;-146.70;63.97
7474;BME280;3778;42.572;23.426;2022-09-09T06:40:31;71935.72;;;-146.70;64.63
7474;BME280;3778;42.572;23.426;2022-09-09T06:43:00;71904.66;;;-146.70;63.76
7474;BME280;3778;42.572;23.426;2022-09-09T06:45:27;71902.59;;;-146.70;63.19
7474;BME280;3778;42.572;23.426;2022-09-09T06:47:55;71894.28;;;-146.70;62.24
7474;BME280;3778;42.572;23.426;2022-09-09T06:50:22;71886.00;;;-146.70;62.48
7474;BME280;3778;42.572;23.426;2022-09-09T06:52:48;71873.56;;;-146.70;62.84
7474;BME280;3778;42.572;23.426;2022-09-09T06:55:15;71873.56;;;-146.70;61.78
7474;BME280;3778;42.572;23.426;2022-09-09T06:57:43;71865.28;;;-146.70;61.55
7474;BME280;3778;42.572;23.426;2022-09-09T07:00:12;71861.13;;;-146.70;61.62
7474;BME280;3778;42.572;23.426;2022-09-09T07:02:40;71857.00;;;-146.70;61.19
7474;BME280;3778;42.572;23.426;2022-09-09T07:05:07;71838.34;;;-146.70;61.25
7474;BME280;3778;42.572;23.426;2022-09-09T07:07:34;71823.84;;;-146.70;60.47
7474;BME280;3778;42.572;23.426;2022-09-09T07:10:02;71807.25;;;-146.70;61.29
7474;BME280;3778;42.572;23.426;2022-09-09T07:12:29;71796.91;;;-146.70;59.25
7474;BME280;3778;42.572;23.426;2022-09-09T07:14:56;71784.47;;;-146.70;59.46
7474;BME280;3778;42.572;23.426;2022-09-09T07:17:24;71784.47;;;-146.70;58.98
7474;BME280;3778;42.572;23.426;2022-09-09T07:19:51;71765.81;;;-146.70;58.75
7474;BME280;3778;42.572;23.426;2022-09-09T07:22:18;71738.88;;;-146.70;57.95
7474;BME280;3778;42.572;23.426;2022-09-09T07:24:45;71728.53;;;-146.70;57.72
7474;BME280;3778;42.572;23.426;2022-09-09T07:27:12;71736.81;;;-146.70;56.24
7474;BME280;3778;42.572;23.426;2022-09-09T07:29:39;71726.44;;;-146.70;56.83
7474;BME280;3778;42.572;23.426;2022-09-09T07:32:05;71711.94;;;-146.70;57.28
7474;BME280;3778;42.572;23.426;2022-09-09T07:34:33;71695.38;;;-146.70;56.68
7474;BME280;3778;42.572;23.426;2022-09-09T07:37:00;71687.06;;;-146.70;55.24
7474;BME280;3778;42.572;23.426;2022-09-09T07:39:27;71676.72;;;-146.70;55.30
7474;BME280;3778;42.572;23.426;2022-09-09T07:41:53;71664.28;;;-146.70;56.58
7474;BME280;3778;42.572;23.426;2022-09-09T07:44:22;71649.78;;;-146.70;54.57
7474;BME280;3778;42.572;23.426;2022-09-09T07:46:50;71643.56;;;-146.70;54.98
7474;BME280;3778;42.572;23.426;2022-09-09T07:49:16;71633.19;;;-146.70;54.49
7474;BME280;3778;42.572;23.426;2022-09-09T07:51:48;71641.50;;;-146.70;54.29
7474;BME280;3778;42.572;23.426;2022-09-09T07:54:17;71641.50;;;-146.70;55.92
7474;BME280;3778;42.572;23.426;2022-09-09T07:56:46;71622.84;;;-146.70;54.70
7474;BME280;3778;42.572;23.426;2022-09-09T07:59:15;71608.34;;;-146.70;55.88
7474;BME280;3778;42.572;23.426;2022-09-09T08:01:44;71581.41;;;-146.70;54.45
7474;BME280;3778;42.572;23.426;2022-09-09T08:04:14;71562.75;;;-146.70;53.42
7474;BME280;3778;42.572;23.426;2022-09-09T08:06:45;71531.66;;;-146.70;55.25
7474;BME280;3778;42.572;23.426;2022-09-09T08:09:13;71515.09;;;-146.70;52.75
7474;BME280;3778;42.572;23.426;2022-09-09T08:11:40;71510.94;;;-146.70;53.63
7474;BME280;3778;42.572;23.426;2022-09-09T08:14:08;71502.66;;;-146.70;52.56
7474;BME280;3778;42.572;23.426;2022-09-09T08:16:37;71473.66;;;-146.70;51.91
7474;BME280;3778;42.572;23.426;2022-09-09T08:19:06;71446.72;;;-146.70;51.85
7474;BME280;3778;42.572;23.426;2022-09-09T08:21:35;71438.44;;;-146.70;50.03
7474;BME280;3778;42.572;23.426;2022-09-09T08:24:04;71461.22;;;-146.70;49.84
7474;BME280;3778;42.572;23.426;2022-09-09T08:26:33;71457.06;;;-146.70;49.59
7474;BME280;3778;42.572;23.426;2022-09-09T08:29:00;71452.94;;;-146.70;50.49
7474;BME280;3778;42.572;23.426;2022-09-09T08:31:29;71444.66;;;-146.70;49.70
7474;BME280;3778;42.572;23.426;2022-09-09T08:33:58;71446.72;;;-146.70;49.89
7474;BME280;3778;42.572;23.426;2022-09-09T08:36:28;71426.00;;;-146.70;49.93
7474;BME280;3778;42.572;23.426;2022-09-09T08:38:56;71409.41;;;-146.70;48.80
7474;BME280;3778;42.572;23.426;2022-09-09T08:41:42;71397.00;;;-146.70;48.52
7474;BME280;3778;42.572;23.426;2022-09-09T08:44:20;71388.69;;;-146.70;49.30
7474;BME280;3778;42.572;23.426;2022-09-09T08:46:54;71397.00;;;-146.70;47.99
7474;BME280;3778;42.572;23.426;2022-09-09T08:49:44;71392.84;;;-146.70;48.40
7474;BME280;3778;42.572;23.426;2022-09-09T08:52:19;71386.63;;;-146.70;47.90
7474;BME280;3778;42.572;23.426;2022-09-09T08:54:48;71384.56;;;-146.70;48.28
7474;BME280;3778;42.572;23.426;2022-09-09T08:57:26;71376.28;;;-146.70;48.80
7474;BME280;3778;42.572;23.426;2022-09-09T08:59:55;71357.63;;;-146.70;49.33
7474;BME280;3778;42.572;23.426;2022-09-09T09:02:25;71365.91;;;-146.70;47.88
7474;BME280;3778;42.572;23.426;2022-09-09T09:05:09;71361.78;;;-146.70;48.59
7474;BME280;3778;42.572;23.426;2022-09-09T09:07:55;71345.19;;;-146.70;47.67
7474;BME280;3778;42.572;23.426;2022-09-09T09:10:37;71347.25;;;-146.70;48.05
7474;BME280;3778;42.572;23.426;2022-09-09T09:13:13;71343.13;;;-146.70;47.39
7474;BME280;3778;42.572;23.426;2022-09-09T09:15:42;71355.56;;;-146.70;48.07
7474;BME280;3778;42.572;23.426;2022-09-09T09:18:12;71355.56;;;-146.70;47.79
7474;BME280;3778;42.572;23.426;2022-09-09T09:20:50;71363.84;;;-146.70;47.64
7474;BME280;3778;42.572;23.426;2022-09-09T09:23:22;71355.56;;;-146.70;47.40
7474;BME280;3778;42.572;23.426;2022-09-09T09:25:50;71359.69;;;-146.70;48.29
7474;BME280;3778;42.572;23.426;2022-09-09T09:28:23;71332.75;;;-146.70;46.40
7474;BME280;3778;42.572;23.426;2022-09-09T09:30:53;71334.84;;;-146.70;47.31
7474;BME280;3778;42.572;23.426;2022-09-09T09:33:27;71324.47;;;-146.70;47.66
7474;BME280;3778;42.572;23.426;2022-09-09T09:35:58;71353.47;;;-146.70;46.87
7474;BME280;3778;42.572;23.426;2022-09-09T09:38:26;71347.25;;;-146.70;47.07
7474;BME280;3778;42.572;23.426;2022-09-09T09:40:54;71359.69;;;-146.70;46.36
7474;BME280;3778;42.572;23.426;2022-09-09T09:43:27;71349.34;;;-146.70;49.21
7474;BME280;3778;42.572;23.426;2022-09-09T09:45:55;71345.19;;;-146.70;47.98
7474;BME280;3778;42.572;23.426;2022-09-09T09:48:24;71338.97;;;-146.70;47.74
7474;BME280;3778;42.572;23.426;2022-09-09T09:50:53;71322.41;;;-146.70;47.09
7474;BME280;3778;42.572;23.426;2022-09-09T09:53:24;71312.03;;;-146.70;48.40
7474;BME280;3778;42.572;23.426;2022-09-09T09:55:55;71301.69;;;-146.70;47.87
7474;BME280;3778;42.572;23.426;2022-09-09T09:58:26;71287.19;;;-146.70;47.13
7474;BME280;3778;42.572;23.426;2022-09-09T10:00:55;71268.53;;;-146.70;46.67
7474;BME280;3778;42.572;23.426;2022-09-09T10:03:25;71254.03;;;-146.70;47.24
7474;BME280;3778;42.572;23.426;2022-09-09T10:05:53;71256.09;;;-146.70;46.62
7474;BME280;3778;42.572;23.426;2022-09-09T10:08:22;71249.88;;;-146.70;47.34
7474;BME280;3778;42.572;23.426;2022-09-09T10:11:13;71220.88;;;-146.70;46.01
7474;BME280;3778;42.572;23.426;2022-09-09T10:13:52;71210.53;;;-146.70;46.44
7474;BME280;3778;42.572;23.426;2022-09-09T10:16:36;71196.03;;;-146.70;47.67
7474;BME280;3778;42.572;23.426;2022-09-09T10:19:09;71198.09;;;-146.70;45.24
7474;BME280;3778;42.572;23.426;2022-09-09T10:22:04;71206.38;;;-146.70;45.14
7474;BME280;3778;42.572;23.426;2022-09-09T10:24:44;71227.09;;;-146.70;45.56
7474;BME280;3778;42.572;23.426;2022-09-09T10:27:19;71231.25;;;-146.70;45.53
7474;BME280;3778;42.572;23.426;2022-09-09T10:29:59;71245.75;;;-146.70;45.92
7474;BME280;3778;42.572;23.426;2022-09-09T10:32:40;71254.03;;;-146.70;45.89
7474;BME280;3778;42.572;23.426;2022-09-09T10:35:19;71251.97;;;-146.70;46.55
7474;BME280;3778;42.572;23.426;2022-09-09T10:37:59;71262.31;;;-146.70;45.81
7474;BME280;3778;42.572;23.426;2022-09-09T10:40:33;71262.31;;;-146.70;46.48
7474;BME280;3778;42.572;23.426;2022-09-09T10:43:16;71278.88;;;-146.70;46.83
7474;BME280;3778;42.572;23.426;2022-09-09T10:45:56;71295.47;;;-146.70;46.73
7474;BME280;3778;42.572;23.426;2022-09-09T10:48:39;71289.25;;;-146.70;47.33
7474;BME280;3778;42.572;23.426;2022-09-09T10:51:21;71293.41;;;-146.70;46.96
7474;BME280;3778;42.572;23.426;2022-09-09T10:53:57;71309.97;;;-146.70;48.02
7474;BME280;3778;42.572;23.426;2022-09-09T10:56:29;71303.75;;;-146.70;48.08
7474;BME280;3778;42.572;23.426;2022-09-09T10:59:00;71314.13;;;-146.70;47.00
7474;BME280;3778;42.572;23.426;2022-09-09T11:01:34;71299.63;;;-146.70;47.53
7474;BME280;3778;42.572;23.426;2022-09-09T11:04:10;71309.97;;;-146.70;46.62
7474;BME280;3778;42.572;23.426;2022-09-09T11:06:44;71293.41;;;-146.70;46.91
7474;BME280;3778;42.572;23.426;2022-09-09T11:09:15;71316.19;;;-146.70;46.11
7474;BME280;3778;42.572;23.426;2022-09-09T11:11:49;71322.41;;;-146.70;47.53
7474;BME280;3778;42.572;23.426;2022-09-09T11:14:22;71316.19;;;-146.70;47.47
7474;BME280;3778;42.572;23.426;2022-09-09T11:16:57;71316.19;;;-146.70;47.02
7474;BME280;3778;42.572;23.426;2022-09-09T11:19:30;71324.47;;;-146.70;47.64
7474;BME280;3778;42.572;23.426;2022-09-09T11:22:00;71326.53;;;-146.70;47.63
7474;BME280;3778;42.572;23.426;2022-09-09T11:24:33;71357.63;;;-146.70;47.56
7474;BME280;3778;42.572;23.426;2022-09-09T11:27:06;71347.25;;;-146.70;48.43
7474;BME280;3778;42.572;23.426;2022-09-09T11:29:56;71349.34;;;-146.70;47.32
7474;BME280;3778;42.572;23.426;2022-09-09T11:32:42;71345.19;;;-146.70;48.03
7474;BME280;3778;42.572;23.426;2022-09-09T11:35:22;71328.63;;;-146.70;47.81
7474;BME280;3778;42.572;23.426;2022-09-09T11:38:09;71318.25;;;-146.70;46.62
7474;BME280;3778;42.572;23.426;2022-09-09T11:40:40;71320.34;;;-146.70;47.18
7474;BME280;3778;42.572;23.426;2022-09-09T11:43:10;71293.41;;;-146.70;46.13
7474;BME280;3778;42.572;23.426;2022-09-09T11:45:40;71297.53;;;-146.70;47.16
7474;BME280;3778;42.572;23.426;2022-09-09T11:48:23;71297.53;;;-146.70;47.50
7474;BME280;3778;42.572;23.426;2022-09-09T11:51:00;71285.09;;;-146.70;46.32
7474;BME280;3778;42.572;23.426;2022-09-09T11:53:29;71276.81;;;-146.70;46.90
7474;BME280;3778;42.572;23.426;2022-09-09T11:56:04;71256.09;;;-146.70;47.18
7474;BME280;3778;42.572;23.426;2022-09-09T11:58:37;71235.38;;;-146.70;46.48
7474;BME280;3778;42.572;23.426;2022-09-09T12:01:26;71196.03;;;-146.70;47.79
7474;BME280;3778;42.572;23.426;2022-09-09T12:04:10;71198.09;;;-146.70;46.88
7474;BME280;3778;42.572;23.426;2022-09-09T12:06:43;71189.81;;;-146.70;47.41
7474;BME280;3778;42.572;23.426;2022-09-09T12:09:18;71181.50;;;-146.70;47.04
7474;BME280;3778;42.572;23.426;2022-09-09T12:11:46;71200.16;;;-146.70;45.98
7474;BME280;3778;42.572;23.426;2022-09-09T12:14:23;71196.03;;;-146.70;47.27
7474;BME280;3778;42.572;23.426;2022-09-09T12:17:09;71214.66;;;-146.70;46.23
7474;BME280;3778;42.572;23.426;2022-09-09T12:19:38;71196.03;;;-146.70;48.17
7474;BME280;3778;42.572;23.426;2022-09-09T12:22:09;71198.09;;;-146.70;49.81
7474;BME280;3778;42.572;23.426;2022-09-09T12:24:44;71198.09;;;-146.70;49.63
7474;BME280;3778;42.572;23.426;2022-09-09T12:27:18;71204.31;;;-146.70;51.47
7474;BME280;3778;42.572;23.426;2022-09-09T12:29:54;71196.03;;;-146.70;50.40
7474;BME280;3778;42.572;23.426;2022-09-09T12:32:27;71169.09;;;-146.70;48.79
7474;BME280;3778;42.572;23.426;2022-09-09T12:34:59;71198.09;;;-146.70;48.52
7474;BME280;3778;42.572;23.426;2022-09-09T12:37:30;71206.38;;;-146.70;49.66
7474;BME280;3778;42.572;23.426;2022-09-09T12:40:01;71212.59;;;-146.70;48.85
7474;BME280;3778;42.572;23.426;2022-09-09T12:42:30;71210.53;;;-146.70;49.97
7474;BME280;3778;42.572;23.426;2022-09-09T12:45:26;71212.59;;;-146.70;50.11
7474;BME280;3778;42.572;23.426;2022-09-09T12:48:05;71254.03;;;-146.70;49.67
7474;BME280;3778;42.572;23.426;2022-09-09T12:50:52;71245.75;;;-146.70;50.70
7474;BME280;3778;42.572;23.426;2022-09-09T12:53:23;71251.97;;;-146.70;50.90
7474;BME280;3778;42.572;23.426;2022-09-09T12:55:52;71239.53;;;-146.70;50.21
7474;BME280;3778;42.572;23.426;2022-09-09T12:58:21;71216.75;;;-146.70;48.45
7474;BME280;3778;42.572;23.426;2022-09-09T13:00:51;71210.53;;;-146.70;48.48
7474;BME280;3778;42.572;23.426;2022-09-09T13:03:20;71181.50;;;-146.70;48.61
7474;BME280;3778;42.572;23.426;2022-09-09T13:05:47;71173.22;;;-146.70;48.64
7474;BME280;3778;42.572;23.426;2022-09-09T13:08:16;71152.50;;;-146.70;50.15
7474;BME280;3778;42.572;23.426;2022-09-09T13:10:48;71133.88;;;-146.70;51.02
7474;BME280;3778;42.572;23.426;2022-09-09T13:13:19;71119.34;;;-146.70;51.23
7474;BME280;3778;42.572;23.426;2022-09-09T13:15:52;71123.50;;;-146.70;50.32